createdAt,value
2023-02-14T00:00:52.487Z,99.9
2023-02-14T00:02:55.579Z,99.9
2023-02-14T00:04:58.550Z,99.9
2023-02-14T00:07:01.493Z,99.9
2023-02-14T00:09:04.574Z,99.9
2023-02-14T00:11:07.493Z,99.9
2023-02-14T00:13:13.694Z,99.9
2023-02-14T00:15:16.683Z,99.9
2023-02-14T00:17:19.712Z,99.9
2023-02-14T00:19:22.677Z,99.9
2023-02-14T00:21:25.675Z,99.9
2023-02-14T00:23:28.657Z,99.9
2023-02-14T00:25:31.678Z,99.9
2023-02-14T00:27:37.886Z,99.9
2023-02-14T00:29:40.858Z,99.9
2023-02-14T00:31:43.869Z,99.9
2023-02-14T00:33:46.876Z,99.9
2023-02-14T00:37:52.864Z,99.9
2023-02-14T00:42:02.100Z,99.9
2023-02-14T00:44:05.082Z,99.9
2023-02-14T00:46:08.153Z,99.9
2023-02-14T00:47:11.195Z,99.9
2023-02-14T00:49:14.191Z,99.9
2023-02-14T00:51:17.215Z,99.9
2023-02-14T00:53:20.243Z,99.9
2023-02-14T00:55:26.400Z,99.9
2023-02-14T00:57:29.421Z,99.9
2023-02-14T00:59:32.426Z,99.9
2023-02-14T01:01:35.446Z,99.9
2023-02-14T01:03:38.480Z,99.9
2023-02-14T01:05:41.454Z,99.9
2023-02-14T01:07:44.434Z,99.9
2023-02-14T01:09:50.637Z,99.9
2023-02-14T01:11:53.653Z,99.9
2023-02-14T01:13:56.798Z,99.9
2023-02-14T01:15:59.632Z,99.9
2023-02-14T01:20:05.662Z,99.9
2023-02-14T01:22:08.661Z,99.9
2023-02-14T01:24:14.854Z,99.9
2023-02-14T01:26:17.859Z,99.9
2023-02-14T01:28:20.866Z,99.9
2023-02-14T01:30:23.932Z,99.9
2023-02-14T01:32:26.827Z,99.9
2023-02-14T01:34:29.846Z,99.9
2023-02-14T01:36:32.840Z,99.9
2023-02-14T01:38:39.056Z,99.9
2023-02-14T01:43:48.161Z,99.9
2023-02-14T01:47:54.176Z,99.9
2023-02-14T01:54:06.354Z,99.9
2023-02-14T02:02:18.377Z,99.9
2023-02-14T02:06:27.540Z,99.9
2023-02-14T02:12:36.536Z,99.9
2023-02-14T02:16:42.589Z,99.9
2023-02-14T02:18:45.544Z,99.9
2023-02-14T02:27:00.747Z,99.9
2023-02-14T02:29:03.701Z,99.9
2023-02-14T02:31:06.824Z,99.9
2023-02-14T02:33:11.299Z,99.9
2023-02-14T02:35:17.468Z,99.9
2023-02-14T02:37:20.470Z,99.9
2023-02-14T02:39:23.433Z,99.9
2023-02-14T02:41:53.365Z,99.9
2023-02-14T02:54:14.509Z,99.9
2023-02-14T03:00:23.502Z,99.9
2023-02-14T03:04:32.714Z,99.9
2023-02-14T03:06:35.668Z,99.9
2023-02-14T03:16:53.808Z,99.9
2023-02-14T03:33:20.959Z,99.9
2023-02-14T03:36:27.026Z,99.9
2023-02-14T03:38:30.013Z,99.9
2023-02-14T03:40:32.994Z,99.9
2023-02-14T03:42:35.997Z,99.9
2023-02-14T03:44:42.181Z,99.9
2023-02-14T03:46:45.206Z,99.9
2023-02-14T03:48:48.112Z,99.9
2023-02-14T03:50:51.123Z,99.9
2023-02-14T03:52:54.089Z,99.9
2023-02-14T03:54:57.074Z,99.9
2023-02-14T03:57:00.048Z,99.9
2023-02-14T03:59:06.241Z,99.9
2023-02-14T04:01:09.203Z,99.9
2023-02-14T04:03:12.224Z,99.9
2023-02-14T04:05:15.173Z,99.9
2023-02-14T04:07:18.136Z,99.9
2023-02-14T04:11:24.733Z,99.9
2023-02-14T04:13:30.271Z,99.9
2023-02-14T04:15:33.277Z,99.9
2023-02-14T04:17:36.225Z,99.9
2023-02-14T04:19:39.180Z,99.9
2023-02-14T04:21:42.149Z,99.9
2023-02-14T04:23:45.134Z,99.9
2023-02-14T04:25:48.087Z,99.9
2023-02-14T04:29:57.308Z,99.9
2023-02-14T04:32:00.386Z,99.9
2023-02-14T04:33:03.281Z,99.9
2023-02-14T04:35:06.242Z,99.9
2023-02-14T04:37:09.208Z,99.9
2023-02-14T04:39:12.165Z,99.9
2023-02-14T04:41:18.353Z,99.9
2023-02-14T04:43:21.339Z,99.9
2023-02-14T04:45:24.278Z,99.9
2023-02-14T04:47:27.235Z,99.9
2023-02-14T04:49:30.200Z,99.9
2023-02-14T04:51:33.166Z,99.9
2023-02-14T04:53:36.125Z,99.9
2023-02-14T04:55:42.305Z,99.9
2023-02-14T04:57:45.279Z,99.9
2023-02-14T04:59:48.210Z,99.9
2023-02-14T05:01:51.183Z,99.9
2023-02-14T05:03:54.118Z,99.9
2023-02-14T05:05:57.076Z,99.9
2023-02-14T05:10:06.198Z,99.9
2023-02-14T05:12:09.162Z,99.9
2023-02-14T05:14:12.110Z,99.9
2023-02-14T05:16:15.146Z,99.9
2023-02-14T05:18:17.998Z,99.9
2023-02-14T05:22:23.927Z,99.9
2023-02-14T05:28:35.959Z,99.9
2023-02-14T05:31:42.145Z,99.9
2023-02-14T05:33:44.950Z,99.9
2023-02-14T05:35:47.887Z,99.9
2023-02-14T05:39:56.994Z,99.9
2023-02-14T05:41:59.923Z,99.9
2023-02-14T05:44:02.885Z,99.9
2023-02-14T05:52:17.886Z,99.9
2023-02-14T05:56:23.764Z,99.9
2023-02-14T06:02:32.664Z,99.9
2023-02-14T06:04:35.748Z,99.9
2023-02-14T06:06:41.695Z,99.9
2023-02-14T06:08:44.641Z,99.9
2023-02-14T06:10:47.566Z,99.9
2023-02-14T06:12:50.523Z,99.9
2023-02-14T06:23:08.408Z,99.9
2023-02-14T06:29:44.237Z,99.9
2023-02-14T06:40:02.211Z,99.9
2023-02-14T06:46:11.141Z,99.9
2023-02-14T06:48:17.173Z,99.9
2023-02-14T06:54:26.012Z,99.9
2023-02-14T06:58:31.881Z,99.9
2023-02-14T07:00:34.818Z,99.9
2023-02-14T07:04:43.905Z,99.9
2023-02-14T07:06:46.881Z,99.9
2023-02-14T07:08:49.790Z,99.9
2023-02-14T07:12:55.645Z,99.9
2023-02-14T07:19:07.696Z,99.9
2023-02-14T07:21:10.603Z,99.9
2023-02-14T07:22:13.678Z,99.9
2023-02-14T07:24:16.641Z,99.9
2023-02-14T07:26:19.543Z,99.9
2023-02-14T07:28:22.490Z,99.9
2023-02-14T07:30:28.867Z,99.9
2023-02-14T07:32:31.583Z,99.9
2023-02-14T07:34:34.522Z,99.9
2023-02-14T07:36:37.467Z,99.9
2023-02-14T07:38:40.388Z,99.9
2023-02-14T07:40:43.347Z,99.9
2023-02-14T07:42:46.276Z,99.9
2023-02-14T07:44:52.447Z,99.9
2023-02-14T07:46:55.372Z,99.9
2023-02-14T07:48:58.323Z,99.9
2023-02-14T07:51:01.772Z,99.9
2023-02-14T07:53:04.232Z,99.9
2023-02-14T07:55:07.158Z,99.9
2023-02-14T07:57:10.113Z,99.9
2023-02-14T07:59:16.253Z,99.9
2023-02-14T08:01:19.281Z,99.9
2023-02-14T08:03:22.161Z,99.9
2023-02-14T08:05:25.184Z,99.9
2023-02-14T08:07:28.072Z,99.9
2023-02-14T08:09:31.059Z,99.9
2023-02-14T08:11:33.958Z,99.9
2023-02-14T08:18:49.172Z,99.9
2023-02-14T08:22:55.094Z,99.9
2023-02-14T08:24:58.068Z,99.9
2023-02-14T08:27:05.831Z,99.9
2023-02-14T08:29:08.810Z,99.9
2023-02-14T08:31:11.791Z,99.9
2023-02-14T08:33:14.791Z,99.9
2023-02-14T08:35:17.757Z,99.9
2023-02-14T08:37:20.748Z,99.9
2023-02-14T08:39:23.749Z,99.9
2023-02-14T08:41:29.984Z,99.9
2023-02-14T08:43:34.369Z,99.9
2023-02-14T08:45:36.013Z,99.9
2023-02-14T08:47:39.049Z,99.9
2023-02-14T08:49:42.096Z,99.9
2023-02-14T08:51:45.105Z,99.9
2023-02-14T08:53:48.132Z,99.9
2023-02-14T08:55:54.437Z,99.9
2023-02-14T08:57:57.464Z,99.9
2023-02-14T09:00:00.519Z,99.9
2023-02-14T09:02:03.600Z,99.9
2023-02-14T09:04:06.671Z,99.9
2023-02-14T09:06:09.706Z,99.9
2023-02-14T09:08:12.780Z,99.9
2023-02-14T09:14:25.255Z,99.9
2023-02-14T09:17:31.550Z,99.9
2023-02-14T09:19:34.570Z,99.9
2023-02-14T09:21:37.659Z,99.9
2023-02-14T09:23:43.952Z,99.9
2023-02-14T09:25:47.040Z,99.9
2023-02-14T09:27:50.159Z,99.9
2023-02-14T09:31:56.480Z,99.9
2023-02-14T09:33:59.471Z,99.9
2023-02-14T09:36:02.580Z,99.9
2023-02-14T09:38:08.905Z,99.9
2023-02-14T09:42:15.134Z,99.9
2023-02-14T09:44:18.272Z,99.9
2023-02-14T09:46:21.455Z,99.9
2023-02-14T09:48:25.711Z,99.9
2023-02-14T09:52:34.006Z,99.9
2023-02-14T09:56:50.537Z,99.9
2023-02-14T09:58:43.436Z,99.9
2023-02-14T10:00:46.651Z,99.9
2023-02-14T10:02:49.706Z,99.9
2023-02-14T10:04:52.732Z,99.9
2023-02-14T10:06:58.888Z,99.9
2023-02-14T10:09:01.938Z,99.9
2023-02-14T10:11:05.017Z,99.9
2023-02-14T10:13:29.000Z,99.9
2023-02-14T10:15:32.078Z,99.9
2023-02-14T10:17:35.306Z,99.9
2023-02-14T10:19:41.269Z,99.9
2023-02-14T10:21:45.936Z,99.9
2023-02-14T10:23:47.450Z,99.9
2023-02-14T10:25:50.582Z,99.9
2023-02-14T10:29:56.942Z,99.9
2023-02-14T10:32:00.064Z,99.9
2023-02-14T10:34:06.366Z,99.9
2023-02-14T10:36:09.498Z,99.9
2023-02-14T10:38:12.632Z,99.9
2023-02-14T10:40:17.426Z,99.9
2023-02-14T10:42:18.910Z,99.9
2023-02-14T10:44:22.050Z,99.9
2023-02-14T10:46:25.351Z,99.9
2023-02-14T10:50:34.500Z,99.9
2023-02-14T10:52:37.525Z,99.9
2023-02-14T10:54:40.555Z,99.9
2023-02-14T11:00:49.692Z,99.9
2023-02-14T11:02:55.852Z,99.9
2023-02-14T11:04:58.862Z,99.9
2023-02-14T11:07:01.885Z,99.9
2023-02-14T11:08:04.969Z,99.9
2023-02-14T11:12:11.128Z,99.9
2023-02-14T11:16:20.226Z,99.9
2023-02-14T11:20:26.285Z,99.9
2023-02-14T11:22:29.326Z,99.9
2023-02-14T11:24:32.356Z,99.9
2023-02-14T11:28:41.014Z,99.9
2023-02-14T11:32:47.534Z,99.9
2023-02-14T11:34:50.551Z,99.9
2023-02-14T11:36:53.596Z,99.9
2023-02-14T11:38:56.591Z,99.9
2023-02-14T11:40:59.934Z,99.9
2023-02-14T11:43:14.277Z,99.9
2023-02-14T11:45:08.745Z,99.9
2023-02-14T11:47:11.737Z,99.9
2023-02-14T11:49:14.742Z,99.9
2023-02-14T11:51:17.754Z,93
2023-02-14T11:53:20.821Z,98.1
2023-02-14T11:57:26.783Z,98.1
2023-02-14T11:59:32.906Z,96.3
2023-02-14T12:03:38.916Z,95.4
2023-02-14T12:08:47.916Z,99.6
2023-02-14T12:10:50.909Z,99.5
2023-02-14T12:12:57.034Z,94.6
2023-02-14T12:15:00.016Z,94
2023-02-14T12:17:02.992Z,81.3
2023-02-14T12:19:05.998Z,70.6
2023-02-14T12:21:08.953Z,70.2
2023-02-14T12:27:21.993Z,71.4
2023-02-14T12:29:24.926Z,71.2
2023-02-14T12:31:28.059Z,70.9
2023-02-14T12:33:30.886Z,71.1
2023-02-14T12:35:33.847Z,64.3
2023-02-14T12:39:39.768Z,66.6
2023-02-14T12:41:45.865Z,69.4
2023-02-14T12:43:48.796Z,65.3
2023-02-14T12:49:57.654Z,60.1
2023-02-14T12:52:00.625Z,67.7
2023-02-14T12:54:03.579Z,53.5
2023-02-14T12:56:09.638Z,53.2
2023-02-14T12:58:12.585Z,52.9
2023-02-14T13:09:33.600Z,51.8
2023-02-14T13:13:39.291Z,52.2
2023-02-14T13:15:42.221Z,51.9
2023-02-14T13:21:50.977Z,45.4
2023-02-14T13:25:59.965Z,39.1
2023-02-14T13:28:02.894Z,38.8
2023-02-14T13:30:05.829Z,38.3
2023-02-14T13:40:23.478Z,37.5
2023-02-14T13:42:26.371Z,37.5
2023-02-14T13:44:29.309Z,37.5
2023-02-14T13:46:32.321Z,35.9
2023-02-14T13:48:37.403Z,35.5
2023-02-14T13:50:38.025Z,34.3
2023-02-14T13:52:44.112Z,34.1
2023-02-14T13:54:47.011Z,34.3
2023-02-14T13:56:49.919Z,35
2023-02-14T14:01:21.970Z,36.5
2023-02-14T14:03:24.864Z,37.9
2023-02-14T14:07:33.823Z,36.4
2023-02-14T14:13:42.641Z,54.4
2023-02-14T14:15:45.508Z,53.6
2023-02-14T14:19:56.031Z,91.7
2023-02-14T14:21:58.924Z,99.6
2023-02-14T14:24:01.872Z,99.8
2023-02-14T14:26:04.801Z,93.2
2023-02-14T14:28:07.767Z,92.2
2023-02-14T14:32:13.808Z,84.4
2023-02-14T14:34:19.807Z,96
2023-02-14T14:36:22.782Z,94.8
2023-02-14T14:38:25.775Z,99.6
2023-02-14T14:42:31.762Z,99.8
2023-02-14T14:44:34.766Z,99.8
2023-02-14T14:48:43.865Z,99.8
2023-02-14T14:53:52.946Z,99.9
2023-02-14T14:55:55.975Z,99.9
2023-02-14T14:57:59.001Z,99.9
2023-02-14T15:00:02.147Z,99.9
2023-02-14T15:02:08.174Z,99.9
2023-02-14T15:04:12.430Z,99.9
2023-02-14T15:06:14.244Z,99.9
2023-02-14T15:08:17.302Z,99.9
2023-02-14T15:10:20.356Z,99.9
2023-02-14T15:12:23.405Z,99.9
2023-02-14T15:14:26.443Z,99.7
2023-02-14T15:16:32.656Z,96.1
2023-02-14T15:18:35.598Z,95.1
2023-02-14T15:20:38.655Z,86.2
2023-02-14T15:22:41.731Z,99.3
2023-02-14T15:24:44.775Z,99.6
2023-02-14T15:26:47.807Z,99.6
2023-02-14T15:28:50.852Z,99.7
2023-02-14T15:30:57.083Z,99.8
2023-02-14T15:33:00.023Z,99.8
2023-02-14T15:35:03.069Z,99.9
2023-02-14T15:37:06.347Z,99.9
2023-02-14T15:39:09.163Z,99.9
2023-02-14T15:41:12.198Z,99.9
2023-02-14T15:43:15.249Z,99.9
2023-02-14T15:45:21.431Z,99.9
2023-02-14T15:47:24.473Z,99.9
2023-02-14T15:49:27.495Z,99.9
2023-02-14T15:50:30.590Z,99.9
2023-02-14T15:52:33.674Z,99.9
2023-02-14T15:54:36.737Z,99.9
2023-02-14T15:56:39.731Z,99.9
2023-02-14T15:58:45.928Z,99.9
2023-02-14T16:00:48.945Z,99.9
2023-02-14T16:02:52.156Z,99.9
2023-02-14T16:04:55.066Z,99.9
2023-02-14T16:06:58.117Z,99.9
2023-02-14T16:09:01.195Z,99.9
2023-02-14T16:11:04.228Z,99.9
2023-02-14T16:15:13.418Z,99.9
2023-02-14T16:21:22.556Z,99.9
2023-02-14T16:23:25.621Z,99.9
2023-02-14T16:27:35.058Z,99.9
2023-02-14T16:29:38.064Z,99.9
2023-02-14T16:31:48.525Z,99.9
2023-02-14T16:33:44.396Z,99.9
2023-02-14T16:44:03.350Z,99.9
2023-02-14T16:47:09.639Z,99.9
2023-02-14T16:49:12.792Z,99.9
2023-02-14T16:51:15.927Z,99.9
2023-02-14T16:53:19.097Z,99.9
2023-02-14T16:55:25.438Z,99.9
2023-02-14T16:57:28.581Z,99.9
2023-02-14T16:59:31.714Z,99.9
2023-02-14T17:01:34.908Z,99.9
2023-02-14T17:03:38.007Z,99.9
2023-02-14T17:05:41.154Z,99.9
2023-02-14T17:07:44.261Z,99.9
2023-02-14T17:09:50.738Z,99.9
2023-02-14T17:11:53.741Z,99.9
2023-02-14T17:13:56.877Z,99.9
2023-02-14T17:16:00.058Z,99.9
2023-02-14T17:18:03.111Z,99.9
2023-02-14T17:20:06.336Z,99.9
2023-02-14T17:22:09.404Z,99.9
2023-02-14T17:24:15.744Z,99.9
2023-02-14T17:26:18.896Z,99.9
2023-02-14T17:28:22.025Z,99.9
2023-02-14T17:30:25.233Z,99.9
2023-02-14T17:32:28.364Z,99.9
2023-02-14T17:34:31.459Z,99.9
2023-02-14T17:36:34.571Z,99.9
2023-02-14T17:38:40.925Z,99.9
2023-02-14T17:40:44.038Z,99.9
2023-02-14T17:42:47.173Z,99.9
2023-02-14T17:47:14.087Z,99.9
2023-02-14T17:49:17.227Z,99.9
2023-02-14T17:51:23.578Z,99.9
2023-02-14T17:55:29.818Z,99.9
2023-02-14T17:59:36.097Z,99.9
2023-02-14T18:01:39.285Z,99.9
2023-02-14T18:09:55.006Z,99.9
2023-02-14T18:14:01.240Z,99.9
2023-02-14T18:16:04.466Z,99.9
2023-02-14T18:18:07.523Z,99.9
2023-02-14T18:20:13.849Z,99.9
2023-02-14T18:22:16.977Z,99.9
2023-02-14T18:24:20.097Z,99.9
2023-02-14T18:26:23.207Z,99.9
2023-02-14T18:28:26.328Z,99.9
2023-02-14T18:30:29.500Z,99.9
2023-02-14T18:34:38.904Z,99.9
2023-02-14T18:36:42.031Z,99.9
2023-02-14T18:38:45.138Z,99.9
2023-02-14T18:39:48.307Z,99.9
2023-02-14T18:41:51.424Z,99.9
2023-02-14T18:43:54.559Z,99.9
2023-02-14T18:45:57.686Z,99.9
2023-02-14T18:48:04.001Z,99.9
2023-02-14T18:50:07.127Z,99.9
2023-02-14T18:54:13.335Z,99.9
2023-02-14T18:56:16.479Z,99.9
2023-02-14T19:06:35.208Z,99.9
2023-02-14T19:08:38.319Z,99.9
2023-02-14T19:10:41.422Z,99.9
2023-02-14T19:12:44.494Z,99.9
2023-02-14T19:14:47.589Z,99.9
2023-02-14T19:16:54.482Z,99.9
2023-02-14T19:18:56.963Z,99.9
2023-02-14T19:21:00.488Z,99.9
2023-02-14T19:23:03.172Z,99.9
2023-02-14T19:25:06.260Z,99.9
2023-02-14T19:27:09.362Z,99.9
2023-02-14T19:31:18.905Z,99.9
2023-02-14T19:33:21.864Z,99.9
2023-02-14T19:35:24.946Z,99.9
2023-02-14T19:36:28.080Z,99.9
2023-02-14T19:38:31.189Z,99.9
2023-02-14T19:40:34.282Z,99.9
2023-02-14T19:42:37.374Z,99.9
2023-02-14T19:44:43.673Z,99.9
2023-02-14T19:46:46.763Z,99.9
2023-02-14T19:48:49.847Z,99.9
2023-02-14T19:50:52.942Z,99.9
2023-02-14T19:52:56.041Z,99.9
2023-02-14T19:54:59.109Z,99.9
2023-02-14T19:57:02.210Z,99.9
2023-02-14T19:59:08.500Z,99.9
2023-02-14T20:01:11.588Z,99.9
2023-02-14T20:03:14.649Z,99.9
2023-02-14T20:05:17.762Z,99.9
2023-02-14T20:07:20.822Z,99.9
2023-02-14T20:09:23.888Z,99.9
2023-02-14T20:11:26.956Z,99.9
2023-02-14T20:13:33.244Z,99.9
2023-02-14T20:19:43.976Z,99.9
2023-02-14T20:23:50.127Z,99.9
2023-02-14T20:25:53.189Z,99.9
2023-02-14T20:32:05.700Z,99.9
2023-02-14T20:33:08.742Z,99.9
2023-02-14T20:35:11.811Z,99.9
2023-02-14T20:37:14.868Z,99.9
2023-02-14T20:39:17.947Z,99.9
2023-02-14T20:41:24.213Z,99.9
2023-02-14T20:43:27.304Z,99.9
2023-02-14T20:45:30.356Z,99.9
2023-02-14T20:47:33.427Z,99.9
2023-02-14T20:49:36.471Z,99.9
2023-02-14T20:51:39.554Z,99.9
2023-02-14T20:53:42.591Z,99.9
2023-02-14T20:55:48.887Z,99.9
2023-02-14T20:59:54.998Z,99.9
2023-02-14T21:01:58.110Z,99.9
2023-02-14T21:04:01.208Z,99.9
2023-02-14T21:18:25.780Z,99.9
2023-02-14T21:20:28.840Z,99.9
2023-02-14T21:24:38.148Z,99.9
2023-02-14T21:26:41.206Z,99.9
2023-02-14T21:28:44.248Z,99.9
2023-02-14T21:31:14.212Z,99.9
2023-02-14T21:33:17.188Z,99.9
2023-02-14T21:35:20.219Z,99.9
2023-02-14T21:37:26.500Z,99.9
2023-02-14T21:39:29.537Z,99.9
2023-02-14T21:43:35.648Z,99.9
2023-02-14T21:49:44.780Z,99.9
2023-02-14T21:51:51.039Z,99.9
2023-02-14T21:53:54.084Z,99.9
2023-02-14T21:55:57.118Z,99.9
2023-02-14T21:58:00.169Z,99.9
2023-02-14T22:00:03.651Z,99.9
2023-02-14T22:02:06.668Z,99.9
2023-02-14T22:04:09.723Z,99.9
2023-02-14T22:06:15.966Z,99.9
2023-02-14T22:08:19.008Z,99.9
2023-02-14T22:12:25.092Z,99.9
2023-02-14T22:14:28.132Z,99.9
2023-02-14T22:16:31.169Z,99.9
2023-02-14T22:18:34.204Z,99.9
2023-02-14T22:20:40.453Z,99.9
2023-02-14T22:22:43.503Z,99.9
2023-02-14T22:29:55.772Z,99.9
2023-02-14T22:31:58.916Z,99.9
2023-02-14T22:34:05.000Z,99.9
2023-02-14T22:36:08.046Z,99.9
2023-02-14T22:38:12.110Z,99.9
2023-02-14T22:40:14.110Z,99.9
2023-02-14T22:42:17.134Z,99.9
2023-02-14T22:44:20.187Z,99.9
2023-02-14T22:46:23.222Z,99.9
2023-02-14T22:52:35.498Z,99.9
2023-02-14T22:54:38.543Z,99.9
2023-02-14T22:56:41.582Z,99.9
2023-02-14T22:58:44.602Z,99.9
2023-02-14T23:00:47.600Z,99.9
2023-02-14T23:02:53.885Z,99.9
2023-02-14T23:04:57.296Z,99.9
2023-02-14T23:06:59.902Z,99.9
2023-02-14T23:09:02.906Z,99.9
2023-02-14T23:11:05.919Z,99.9
2023-02-14T23:13:08.963Z,99.9
2023-02-14T23:15:11.948Z,99.9
2023-02-14T23:17:18.202Z,99.9
2023-02-14T23:21:24.234Z,99.9
2023-02-14T23:26:33.377Z,99.9
2023-02-14T23:30:42.604Z,99.9
2023-02-14T23:32:45.624Z,99.9
2023-02-14T23:34:48.630Z,99.9
2023-02-14T23:38:54.653Z,99.9
2023-02-14T23:40:57.680Z,99.9
2023-02-14T23:43:00.698Z,99.9
2023-02-14T23:45:06.919Z,99.9
2023-02-14T23:47:09.927Z,99.9
2023-02-14T23:53:18.961Z,99.9
2023-02-14T23:55:21.975Z,99.9
2023-02-14T23:57:24.962Z,99.9
2023-02-14T23:59:31.190Z,99.9
